Pagina principale
METAR-TAF:

METAR-TAF

Aeroporti :

Aeroporto Internazionale del Kuwait

Madinat al-Kuwait, Kuwait

latitudine: 29-13N, longitudine: 047-59E, altezza: 55 m

Osservazione

Il bollettino è stato emesso 59 minuti fa, alle 12:00 UTC
Vento 10 kt da ovest
Temperature 45°C
Umidità 10%
Pressione 998 hPa
Visibilità 10 km o più
nessuna nube inferiore a 1500 m e nessun cumulonembo

METAR: OKBK 151200Z 27010KT CAVOK 45/06 Q0998 NOSIG

Ora: 15:59 (12:59 UTC)

Previsione

Il bollettino è stato emesso 2 ore e 14 minuti fa, alle 10:45 UTC
Previsione valida dal 15 alle 12 UTC al 16 alle 18 UTC
Vento 8 kt da nord con raffiche fino a 18 kt
Visibilità: 7000 m
Cielo sereno
Temporaneamente
dal 15 alle 15 UTC al 15 alle 24 UTC
Vento 3 kt da direzioni variabili

TAF: OKBK 151045Z 1512/1618 35008G18KT 7000 SKC TEMPO 1515/1524 VRB03KT

Osservazioni e previsioni meteorologiche di più di 4000 aeroporti (messaggi METAR e TAF).

Le stazioni disponibili sono rappresentate dai dischi gialli e rossi sulla carta.

Puntare il mouse per vedere il nome della stazione.

Clicca sopra per visualizzare le osservazioni e previsioni meteorologiche.

Per cambiare la mappa : fare clic sui pulsanti verdi con una croce nera per ingrandire, il pulsante verde con un trattino per diminuire, o sulla freccia verde per le mappe adiacenti.


METAR-TAF: